sensor_id;sensor_type;location;lat;lon;timestamp;temperature;humidity
17307;DHT22;8771;48.048;7.682;2022-10-16T00:00:44;17.10;80.20
17307;DHT22;8771;48.048;7.682;2022-10-16T00:05:45;17.10;80.20
17307;DHT22;8771;48.048;7.682;2022-10-16T00:10:49;17.10;80.10
17307;DHT22;8771;48.048;7.682;2022-10-16T00:15:50;17.10;80.10
17307;DHT22;8771;48.048;7.682;2022-10-16T00:21:00;17.10;80.20
17307;DHT22;8771;48.048;7.682;2022-10-16T00:26:06;17.10;80.10
17307;DHT22;8771;48.048;7.682;2022-10-16T00:31:11;17.10;80.10
17307;DHT22;8771;48.048;7.682;2022-10-16T00:36:15;17.00;80.10
17307;DHT22;8771;48.048;7.682;2022-10-16T00:41:19;16.90;80.30
17307;DHT22;8771;48.048;7.682;2022-10-16T00:46:22;16.90;80.20
17307;DHT22;8771;48.048;7.682;2022-10-16T00:51:28;16.90;80.20
17307;DHT22;8771;48.048;7.682;2022-10-16T00:56:33;16.80;80.20
17307;DHT22;8771;48.048;7.682;2022-10-16T01:01:35;16.80;80.20
17307;DHT22;8771;48.048;7.682;2022-10-16T01:06:42;16.80;80.30
17307;DHT22;8771;48.048;7.682;2022-10-16T01:11:57;16.80;80.30
17307;DHT22;8771;48.048;7.682;2022-10-16T01:17:06;16.80;80.40
17307;DHT22;8771;48.048;7.682;2022-10-16T01:22:10;16.80;80.40
17307;DHT22;8771;48.048;7.682;2022-10-16T01:27:15;16.70;80.40
17307;DHT22;8771;48.048;7.682;2022-10-16T01:32:21;16.70;80.40
17307;DHT22;8771;48.048;7.682;2022-10-16T01:37:32;16.70;80.40
17307;DHT22;8771;48.048;7.682;2022-10-16T01:42:38;16.70;80.40
17307;DHT22;8771;48.048;7.682;2022-10-16T01:47:43;16.70;80.40
17307;DHT22;8771;48.048;7.682;2022-10-16T01:52:48;16.60;80.30
17307;DHT22;8771;48.048;7.682;2022-10-16T01:57:53;16.60;80.40
17307;DHT22;8771;48.048;7.682;2022-10-16T02:02:59;16.60;80.40
17307;DHT22;8771;48.048;7.682;2022-10-16T02:08:06;16.50;80.60
17307;DHT22;8771;48.048;7.682;2022-10-16T02:13:12;16.50;80.60
17307;DHT22;8771;48.048;7.682;2022-10-16T02:18:14;16.50;80.60
17307;DHT22;8771;48.048;7.682;2022-10-16T02:23:22;16.50;80.60
17307;DHT22;8771;48.048;7.682;2022-10-16T02:28:31;16.50;80.60
17307;DHT22;8771;48.048;7.682;2022-10-16T02:33:36;16.50;80.60
17307;DHT22;8771;48.048;7.682;2022-10-16T02:38:40;16.50;80.60
17307;DHT22;8771;48.048;7.682;2022-10-16T02:43:43;16.50;80.60
17307;DHT22;8771;48.048;7.682;2022-10-16T02:48:45;16.50;80.60
17307;DHT22;8771;48.048;7.682;2022-10-16T02:53:47;16.50;80.60
17307;DHT22;8771;48.048;7.682;2022-10-16T02:58:50;16.50;80.60
17307;DHT22;8771;48.048;7.682;2022-10-16T03:03:52;16.50;80.60
17307;DHT22;8771;48.048;7.682;2022-10-16T03:08:54;16.40;80.50
17307;DHT22;8771;48.048;7.682;2022-10-16T03:13:57;16.40;80.50
17307;DHT22;8771;48.048;7.682;2022-10-16T03:18:59;16.40;80.50
17307;DHT22;8771;48.048;7.682;2022-10-16T03:24:01;16.40;80.50
17307;DHT22;8771;48.048;7.682;2022-10-16T03:29:05;16.40;81.30
17307;DHT22;8771;48.048;7.682;2022-10-16T03:34:08;16.40;80.50
17307;DHT22;8771;48.048;7.682;2022-10-16T03:39:11;16.40;80.60
17307;DHT22;8771;48.048;7.682;2022-10-16T03:44:14;16.40;80.60
17307;DHT22;8771;48.048;7.682;2022-10-16T03:49:16;16.40;80.50
17307;DHT22;8771;48.048;7.682;2022-10-16T03:54:18;16.40;80.60
17307;DHT22;8771;48.048;7.682;2022-10-16T03:59:21;16.40;80.60
17307;DHT22;8771;48.048;7.682;2022-10-16T04:04:23;16.40;80.60
17307;DHT22;8771;48.048;7.682;2022-10-16T04:09:25;16.40;80.60
17307;DHT22;8771;48.048;7.682;2022-10-16T04:14:29;16.40;80.60
17307;DHT22;8771;48.048;7.682;2022-10-16T04:19:31;16.40;80.60
17307;DHT22;8771;48.048;7.682;2022-10-16T04:24:33;16.40;80.50
17307;DHT22;8771;48.048;7.682;2022-10-16T04:29:36;16.40;80.50
17307;DHT22;8771;48.048;7.682;2022-10-16T04:34:39;16.40;80.50
17307;DHT22;8771;48.048;7.682;2022-10-16T04:39:41;16.40;80.50
17307;DHT22;8771;48.048;7.682;2022-10-16T04:44:44;16.40;80.50
17307;DHT22;8771;48.048;7.682;2022-10-16T04:49:46;16.40;80.50
17307;DHT22;8771;48.048;7.682;2022-10-16T04:54:48;16.40;80.40
17307;DHT22;8771;48.048;7.682;2022-10-16T04:59:52;16.40;80.50
17307;DHT22;8771;48.048;7.682;2022-10-16T05:04:54;16.40;80.50
17307;DHT22;8771;48.048;7.682;2022-10-16T05:09:56;16.40;80.60
17307;DHT22;8771;48.048;7.682;2022-10-16T05:14:59;16.40;80.60
17307;DHT22;8771;48.048;7.682;2022-10-16T05:20:02;16.40;80.60
17307;DHT22;8771;48.048;7.682;2022-10-16T05:25:04;16.50;80.60
17307;DHT22;8771;48.048;7.682;2022-10-16T05:30:09;16.50;80.60
17307;DHT22;8771;48.048;7.682;2022-10-16T05:35:11;16.50;80.60
17307;DHT22;8771;48.048;7.682;2022-10-16T05:40:13;16.50;80.60
17307;DHT22;8771;48.048;7.682;2022-10-16T05:45:17;16.50;80.60
17307;DHT22;8771;48.048;7.682;2022-10-16T05:50:19;16.50;80.60
17307;DHT22;8771;48.048;7.682;2022-10-16T05:55:21;16.40;80.60
17307;DHT22;8771;48.048;7.682;2022-10-16T06:00:24;16.40;80.60
17307;DHT22;8771;48.048;7.682;2022-10-16T06:05:26;16.40;80.60
17307;DHT22;8771;48.048;7.682;2022-10-16T06:10:29;16.40;80.60
17307;DHT22;8771;48.048;7.682;2022-10-16T06:15:32;16.40;80.60
17307;DHT22;8771;48.048;7.682;2022-10-16T06:20:35;16.50;80.70
17307;DHT22;8771;48.048;7.682;2022-10-16T06:25:37;16.50;80.70
17307;DHT22;8771;48.048;7.682;2022-10-16T06:30:42;16.50;80.70
17307;DHT22;8771;48.048;7.682;2022-10-16T06:35:45;16.50;80.70
17307;DHT22;8771;48.048;7.682;2022-10-16T06:40:47;16.50;80.60
17307;DHT22;8771;48.048;7.682;2022-10-16T06:45:54;16.50;80.70
17307;DHT22;8771;48.048;7.682;2022-10-16T06:50:58;16.50;80.60
17307;DHT22;8771;48.048;7.682;2022-10-16T06:56:07;16.50;80.60
17307;DHT22;8771;48.048;7.682;2022-10-16T07:01:11;16.60;80.60
17307;DHT22;8771;48.048;7.682;2022-10-16T07:06:16;16.60;80.50
17307;DHT22;8771;48.048;7.682;2022-10-16T07:11:19;16.60;80.50
17307;DHT22;8771;48.048;7.682;2022-10-16T07:16:25;16.60;80.50
17307;DHT22;8771;48.048;7.682;2022-10-16T07:21:28;16.60;80.50
17307;DHT22;8771;48.048;7.682;2022-10-16T07:26:32;16.70;80.50
17307;DHT22;8771;48.048;7.682;2022-10-16T07:31:36;16.70;80.40
17307;DHT22;8771;48.048;7.682;2022-10-16T07:36:38;16.70;80.40
17307;DHT22;8771;48.048;7.682;2022-10-16T07:41:40;16.80;80.40
17307;DHT22;8771;48.048;7.682;2022-10-16T07:46:44;16.80;80.30
17307;DHT22;8771;48.048;7.682;2022-10-16T07:51:45;16.90;80.30
17307;DHT22;8771;48.048;7.682;2022-10-16T07:56:47;17.00;80.20
17307;DHT22;8771;48.048;7.682;2022-10-16T08:01:51;17.00;80.10
17307;DHT22;8771;48.048;7.682;2022-10-16T08:06:52;17.20;80.00
17307;DHT22;8771;48.048;7.682;2022-10-16T08:11:55;17.20;79.80
17307;DHT22;8771;48.048;7.682;2022-10-16T08:16:58;17.40;79.80
17307;DHT22;8771;48.048;7.682;2022-10-16T08:22:02;17.50;79.70
17307;DHT22;8771;48.048;7.682;2022-10-16T08:27:04;17.60;79.60
17307;DHT22;8771;48.048;7.682;2022-10-16T08:32:07;17.60;79.60
17307;DHT22;8771;48.048;7.682;2022-10-16T08:37:09;17.70;79.60
17307;DHT22;8771;48.048;7.682;2022-10-16T08:42:20;17.80;79.60
17307;DHT22;8771;48.048;7.682;2022-10-16T08:47:26;17.90;79.60
17307;DHT22;8771;48.048;7.682;2022-10-16T08:52:34;18.00;79.40
17307;DHT22;8771;48.048;7.682;2022-10-16T08:57:36;18.10;79.30
17307;DHT22;8771;48.048;7.682;2022-10-16T09:02:45;18.30;79.10
17307;DHT22;8771;48.048;7.682;2022-10-16T09:07:57;18.50;78.90
17307;DHT22;8771;48.048;7.682;2022-10-16T09:13:11;18.70;78.60
17307;DHT22;8771;48.048;7.682;2022-10-16T09:18:21;18.90;78.40
17307;DHT22;8771;48.048;7.682;2022-10-16T09:23:27;19.10;78.30
17307;DHT22;8771;48.048;7.682;2022-10-16T09:28:29;19.30;78.10
17307;DHT22;8771;48.048;7.682;2022-10-16T09:33:36;19.50;78.00
17307;DHT22;8771;48.048;7.682;2022-10-16T09:38:39;19.70;77.90
17307;DHT22;8771;48.048;7.682;2022-10-16T09:43:46;19.90;77.60
17307;DHT22;8771;48.048;7.682;2022-10-16T09:48:52;20.10;77.40
17307;DHT22;8771;48.048;7.682;2022-10-16T09:53:57;20.30;77.30
17307;DHT22;8771;48.048;7.682;2022-10-16T09:59:00;20.50;77.10
17307;DHT22;8771;48.048;7.682;2022-10-16T10:04:04;20.70;76.90
17307;DHT22;8771;48.048;7.682;2022-10-16T10:09:16;20.90;76.70
17307;DHT22;8771;48.048;7.682;2022-10-16T10:14:34;21.10;76.50
17307;DHT22;8771;48.048;7.682;2022-10-16T10:19:44;21.30;76.40
17307;DHT22;8771;48.048;7.682;2022-10-16T10:30:19;21.60;76.20
17307;DHT22;8771;48.048;7.682;2022-10-16T10:35:29;21.80;76.10
17307;DHT22;8771;48.048;7.682;2022-10-16T10:40:43;21.90;76.00
17307;DHT22;8771;48.048;7.682;2022-10-16T10:45:48;22.10;75.90
17307;DHT22;8771;48.048;7.682;2022-10-16T10:50:59;22.20;75.80
17307;DHT22;8771;48.048;7.682;2022-10-16T10:56:10;22.30;75.80
17307;DHT22;8771;48.048;7.682;2022-10-16T11:01:18;22.40;75.70
17307;DHT22;8771;48.048;7.682;2022-10-16T11:06:29;22.60;75.70
17307;DHT22;8771;48.048;7.682;2022-10-16T11:11:36;22.70;75.50
17307;DHT22;8771;48.048;7.682;2022-10-16T11:16:46;22.90;75.40
17307;DHT22;8771;48.048;7.682;2022-10-16T11:21:56;23.00;75.10
17307;DHT22;8771;48.048;7.682;2022-10-16T11:27:06;23.20;74.90
17307;DHT22;8771;48.048;7.682;2022-10-16T11:32:19;23.40;74.70
17307;DHT22;8771;48.048;7.682;2022-10-16T11:37:28;23.50;74.50
17307;DHT22;8771;48.048;7.682;2022-10-16T11:42:36;23.70;74.30
17307;DHT22;8771;48.048;7.682;2022-10-16T11:47:43;23.90;75.00
17307;DHT22;8771;48.048;7.682;2022-10-16T11:52:53;24.00;73.90
17307;DHT22;8771;48.048;7.682;2022-10-16T11:58:00;24.20;73.70
17307;DHT22;8771;48.048;7.682;2022-10-16T12:03:12;24.40;73.70
17307;DHT22;8771;48.048;7.682;2022-10-16T12:08:19;24.50;73.60
17307;DHT22;8771;48.048;7.682;2022-10-16T12:13:31;24.50;73.60
17307;DHT22;8771;48.048;7.682;2022-10-16T12:18:33;24.60;73.70
17307;DHT22;8771;48.048;7.682;2022-10-16T12:23:45;24.60;73.70
17307;DHT22;8771;48.048;7.682;2022-10-16T12:28:48;24.70;73.70
17307;DHT22;8771;48.048;7.682;2022-10-16T12:33:59;24.80;73.70
17307;DHT22;8771;48.048;7.682;2022-10-16T12:39:02;24.90;73.50
17307;DHT22;8771;48.048;7.682;2022-10-16T12:44:05;25.10;73.40
17307;DHT22;8771;48.048;7.682;2022-10-16T12:49:22;25.30;73.10
17307;DHT22;8771;48.048;7.682;2022-10-16T12:54:30;25.50;72.90
17307;DHT22;8771;48.048;7.682;2022-10-16T12:59:39;25.60;72.50
17307;DHT22;8771;48.048;7.682;2022-10-16T13:05:13;25.80;72.30
17307;DHT22;8771;48.048;7.682;2022-10-16T13:10:25;25.80;72.20
17307;DHT22;8771;48.048;7.682;2022-10-16T13:15:46;25.90;72.30
17307;DHT22;8771;48.048;7.682;2022-10-16T13:20:58;25.90;72.30
17307;DHT22;8771;48.048;7.682;2022-10-16T13:26:12;26.00;72.20
17307;DHT22;8771;48.048;7.682;2022-10-16T13:31:19;26.00;72.90
17307;DHT22;8771;48.048;7.682;2022-10-16T13:36:24;26.20;72.20
17307;DHT22;8771;48.048;7.682;2022-10-16T13:41:27;26.20;72.00
17307;DHT22;8771;48.048;7.682;2022-10-16T13:46:29;26.30;72.00
17307;DHT22;8771;48.048;7.682;2022-10-16T13:51:34;26.40;72.00
17307;DHT22;8771;48.048;7.682;2022-10-16T13:56:39;26.30;71.90
17307;DHT22;8771;48.048;7.682;2022-10-16T14:01:43;26.30;71.90
17307;DHT22;8771;48.048;7.682;2022-10-16T14:06:48;26.30;71.90
17307;DHT22;8771;48.048;7.682;2022-10-16T14:11:54;26.40;72.00
17307;DHT22;8771;48.048;7.682;2022-10-16T14:16:57;26.30;72.10
17307;DHT22;8771;48.048;7.682;2022-10-16T14:22:00;26.30;72.20
17307;DHT22;8771;48.048;7.682;2022-10-16T14:27:25;26.20;72.20
17307;DHT22;8771;48.048;7.682;2022-10-16T14:32:28;26.20;72.20
17307;DHT22;8771;48.048;7.682;2022-10-16T14:37:30;26.20;72.20
17307;DHT22;8771;48.048;7.682;2022-10-16T14:42:34;26.20;72.30
17307;DHT22;8771;48.048;7.682;2022-10-16T14:47:37;26.10;72.30
17307;DHT22;8771;48.048;7.682;2022-10-16T14:52:49;26.10;72.40
17307;DHT22;8771;48.048;7.682;2022-10-16T14:57:53;26.00;72.30
17307;DHT22;8771;48.048;7.682;2022-10-16T15:02:55;26.10;72.40
17307;DHT22;8771;48.048;7.682;2022-10-16T15:07:57;26.00;72.20
17307;DHT22;8771;48.048;7.682;2022-10-16T15:13:00;26.00;72.20
17307;DHT22;8771;48.048;7.682;2022-10-16T15:18:03;26.00;72.20
17307;DHT22;8771;48.048;7.682;2022-10-16T15:23:10;26.00;72.30
17307;DHT22;8771;48.048;7.682;2022-10-16T15:28:16;25.90;72.20
17307;DHT22;8771;48.048;7.682;2022-10-16T15:33:20;25.90;72.30
17307;DHT22;8771;48.048;7.682;2022-10-16T15:38:27;25.80;72.30
17307;DHT22;8771;48.048;7.682;2022-10-16T15:43:31;25.80;72.40
17307;DHT22;8771;48.048;7.682;2022-10-16T15:48:33;25.70;72.40
17307;DHT22;8771;48.048;7.682;2022-10-16T15:53:35;25.60;72.60
17307;DHT22;8771;48.048;7.682;2022-10-16T15:58:39;25.40;72.80
17307;DHT22;8771;48.048;7.682;2022-10-16T16:03:41;25.30;73.00
17307;DHT22;8771;48.048;7.682;2022-10-16T16:08:43;25.00;73.10
17307;DHT22;8771;48.048;7.682;2022-10-16T16:13:46;24.80;73.40
17307;DHT22;8771;48.048;7.682;2022-10-16T16:18:48;24.60;73.80
17307;DHT22;8771;48.048;7.682;2022-10-16T16:23:54;24.40;74.10
17307;DHT22;8771;48.048;7.682;2022-10-16T16:28:57;24.10;74.30
17307;DHT22;8771;48.048;7.682;2022-10-16T16:33:59;23.80;74.60
17307;DHT22;8771;48.048;7.682;2022-10-16T16:39:02;23.60;75.00
17307;DHT22;8771;48.048;7.682;2022-10-16T16:44:12;23.30;75.20
17307;DHT22;8771;48.048;7.682;2022-10-16T16:49:15;23.10;75.50
17307;DHT22;8771;48.048;7.682;2022-10-16T16:54:17;22.80;75.70
17307;DHT22;8771;48.048;7.682;2022-10-16T16:59:21;22.60;76.10
17307;DHT22;8771;48.048;7.682;2022-10-16T17:04:23;22.30;76.40
17307;DHT22;8771;48.048;7.682;2022-10-16T17:09:25;22.10;76.50
17307;DHT22;8771;48.048;7.682;2022-10-16T17:14:28;21.90;77.30
17307;DHT22;8771;48.048;7.682;2022-10-16T17:19:30;21.70;76.60
17307;DHT22;8771;48.048;7.682;2022-10-16T17:24:32;21.60;76.80
17307;DHT22;8771;48.048;7.682;2022-10-16T17:29:35;21.40;76.80
17307;DHT22;8771;48.048;7.682;2022-10-16T17:34:37;21.30;77.00
17307;DHT22;8771;48.048;7.682;2022-10-16T17:39:39;21.10;76.90
17307;DHT22;8771;48.048;7.682;2022-10-16T17:44:43;21.00;77.00
17307;DHT22;8771;48.048;7.682;2022-10-16T17:49:45;20.80;77.00
17307;DHT22;8771;48.048;7.682;2022-10-16T17:54:50;20.60;77.10
17307;DHT22;8771;48.048;7.682;2022-10-16T17:59:54;20.50;77.40
17307;DHT22;8771;48.048;7.682;2022-10-16T18:04:56;20.40;77.40
17307;DHT22;8771;48.048;7.682;2022-10-16T18:09:59;20.30;77.40
17307;DHT22;8771;48.048;7.682;2022-10-16T18:15:05;20.10;77.40
17307;DHT22;8771;48.048;7.682;2022-10-16T18:20:08;19.90;77.50
17307;DHT22;8771;48.048;7.682;2022-10-16T18:25:10;19.80;77.70
17307;DHT22;8771;48.048;7.682;2022-10-16T18:30:14;19.70;77.70
17307;DHT22;8771;48.048;7.682;2022-10-16T18:35:16;19.60;77.70
17307;DHT22;8771;48.048;7.682;2022-10-16T18:40:18;19.50;77.70
17307;DHT22;8771;48.048;7.682;2022-10-16T18:45:21;19.50;77.70
17307;DHT22;8771;48.048;7.682;2022-10-16T18:50:23;19.40;77.70
17307;DHT22;8771;48.048;7.682;2022-10-16T18:55:25;19.30;77.70
17307;DHT22;8771;48.048;7.682;2022-10-16T19:00:30;19.20;77.70
17307;DHT22;8771;48.048;7.682;2022-10-16T19:05:33;19.10;77.80
17307;DHT22;8771;48.048;7.682;2022-10-16T19:10:36;19.00;77.90
17307;DHT22;8771;48.048;7.682;2022-10-16T19:15:42;18.90;77.90
17307;DHT22;8771;48.048;7.682;2022-10-16T19:20:44;18.80;77.90
17307;DHT22;8771;48.048;7.682;2022-10-16T19:25:46;18.70;78.00
17307;DHT22;8771;48.048;7.682;2022-10-16T19:30:49;18.60;78.00
17307;DHT22;8771;48.048;7.682;2022-10-16T19:35:51;18.50;78.00
17307;DHT22;8771;48.048;7.682;2022-10-16T19:40:53;18.40;78.10
17307;DHT22;8771;48.048;7.682;2022-10-16T19:45:56;18.30;78.20
17307;DHT22;8771;48.048;7.682;2022-10-16T19:50:58;18.20;78.20
17307;DHT22;8771;48.048;7.682;2022-10-16T19:56:00;18.20;78.30
17307;DHT22;8771;48.048;7.682;2022-10-16T20:01:03;18.10;78.20
17307;DHT22;8771;48.048;7.682;2022-10-16T20:06:06;18.00;78.30
17307;DHT22;8771;48.048;7.682;2022-10-16T20:11:10;17.80;78.50
17307;DHT22;8771;48.048;7.682;2022-10-16T20:16:14;17.80;78.50
17307;DHT22;8771;48.048;7.682;2022-10-16T20:21:20;17.70;78.60
17307;DHT22;8771;48.048;7.682;2022-10-16T20:26:23;17.60;78.60
17307;DHT22;8771;48.048;7.682;2022-10-16T20:31:28;17.60;78.60
17307;DHT22;8771;48.048;7.682;2022-10-16T20:36:30;17.60;78.60
17307;DHT22;8771;48.048;7.682;2022-10-16T20:41:33;17.50;78.70
17307;DHT22;8771;48.048;7.682;2022-10-16T20:46:36;17.40;78.60
17307;DHT22;8771;48.048;7.682;2022-10-16T20:51:39;17.30;78.80
17307;DHT22;8771;48.048;7.682;2022-10-16T20:56:41;17.10;78.90
17307;DHT22;8771;48.048;7.682;2022-10-16T21:01:44;17.10;79.00
17307;DHT22;8771;48.048;7.682;2022-10-16T21:06:46;17.00;79.00
17307;DHT22;8771;48.048;7.682;2022-10-16T21:11:48;17.00;79.00
17307;DHT22;8771;48.048;7.682;2022-10-16T21:16:51;16.90;79.00
17307;DHT22;8771;48.048;7.682;2022-10-16T21:21:54;16.90;78.90
17307;DHT22;8771;48.048;7.682;2022-10-16T21:26:56;16.80;79.70
17307;DHT22;8771;48.048;7.682;2022-10-16T21:31:59;16.80;78.90
17307;DHT22;8771;48.048;7.682;2022-10-16T21:37:01;16.80;78.90
17307;DHT22;8771;48.048;7.682;2022-10-16T21:42:03;16.70;78.80
17307;DHT22;8771;48.048;7.682;2022-10-16T21:47:06;16.70;78.90
17307;DHT22;8771;48.048;7.682;2022-10-16T21:52:08;16.60;78.90
17307;DHT22;8771;48.048;7.682;2022-10-16T21:57:11;16.60;79.00
17307;DHT22;8771;48.048;7.682;2022-10-16T22:02:14;16.50;79.20
17307;DHT22;8771;48.048;7.682;2022-10-16T22:07:16;16.40;79.10
17307;DHT22;8771;48.048;7.682;2022-10-16T22:12:18;16.40;79.10
17307;DHT22;8771;48.048;7.682;2022-10-16T22:17:21;16.30;79.10
17307;DHT22;8771;48.048;7.682;2022-10-16T22:22:23;16.30;79.80
17307;DHT22;8771;48.048;7.682;2022-10-16T22:27:25;16.30;79.10
17307;DHT22;8771;48.048;7.682;2022-10-16T22:32:28;16.20;79.00
17307;DHT22;8771;48.048;7.682;2022-10-16T22:37:30;16.20;79.00
17307;DHT22;8771;48.048;7.682;2022-10-16T22:42:32;16.20;79.10
17307;DHT22;8771;48.048;7.682;2022-10-16T22:47:35;16.20;79.10
17307;DHT22;8771;48.048;7.682;2022-10-16T22:52:37;16.10;79.00
17307;DHT22;8771;48.048;7.682;2022-10-16T22:57:39;16.10;79.10
17307;DHT22;8771;48.048;7.682;2022-10-16T23:02:42;16.00;79.10
17307;DHT22;8771;48.048;7.682;2022-10-16T23:07:44;15.90;79.20
17307;DHT22;8771;48.048;7.682;2022-10-16T23:12:46;15.80;79.30
17307;DHT22;8771;48.048;7.682;2022-10-16T23:17:49;15.80;79.30
17307;DHT22;8771;48.048;7.682;2022-10-16T23:22:51;15.80;79.30
17307;DHT22;8771;48.048;7.682;2022-10-16T23:27:53;15.70;79.30
17307;DHT22;8771;48.048;7.682;2022-10-16T23:32:56;15.70;79.30
17307;DHT22;8771;48.048;7.682;2022-10-16T23:37:58;15.50;79.30
17307;DHT22;8771;48.048;7.682;2022-10-16T23:43:00;15.40;79.60
17307;DHT22;8771;48.048;7.682;2022-10-16T23:48:04;15.40;79.60
17307;DHT22;8771;48.048;7.682;2022-10-16T23:53:06;15.40;79.50
17307;DHT22;8771;48.048;7.682;2022-10-16T23:58:07;15.40;79.40
